Time;durP1;ratioP1;P1;durP2;ratioP2;P2;SDS_P1;SDS_P2;PMS_P1;PMS_P2;Temp;Humidity;BMP_temperature;BMP_pressure;BME280_temperature;BME280_humidity;BME280_pressure;Samples;Min_cycle;Max_cycle;Signal;HPM_P1;HPM_P2
2023/03/02 00:01:44;;;;;;;;;;;;;;;1.02;100.00;96498.50;5016062;28;19921;-69
2023/03/02 00:04:25;;;;;;;;;;;;;;;1.04;100.00;96499.78;4996803;28;20305;-70
2023/03/02 00:06:52;;;;;;;;;;;;;;;1.03;100.00;96492.81;5005706;28;20343;-66
2023/03/02 00:09:17;;;;;;;;;;;;;;;1.04;100.00;96502.47;5015068;28;19921;-67
2023/03/02 00:11:44;;;;;;;;;;;;;;;1.02;100.00;96506.59;5021918;28;19951;-67
2023/03/02 00:14:09;;;;;;;;;;;;;;;0.99;100.00;96499.94;5015274;28;19924;-70
2023/03/02 00:16:34;;;;;;;;;;;;;;;0.98;100.00;96497.56;5002526;28;20326;-69
2023/03/02 00:19:00;;;;;;;;;;;;;;;0.98;100.00;96505.66;5022141;28;19996;-71
2023/03/02 00:21:25;;;;;;;;;;;;;;;0.96;100.00;96495.16;5018970;28;19939;-70
2023/03/02 00:23:51;;;;;;;;;;;;;;;0.94;100.00;96498.16;5022252;28;19917;-70
2023/03/02 00:26:17;;;;;;;;;;;;;;;0.99;100.00;96491.84;5015148;28;19924;-70
2023/03/02 00:28:42;;;;;;;;;;;;;;;0.95;100.00;96491.66;5023120;28;20641;-71
2023/03/02 00:31:07;;;;;;;;;;;;;;;0.92;100.00;96480.72;5016730;28;19917;-67
2023/03/02 00:33:33;;;;;;;;;;;;;;;0.93;100.00;96483.06;5023474;28;19955;-70
2023/03/02 00:35:58;;;;;;;;;;;;;;;0.92;100.00;96476.09;5023909;28;19932;-71
2023/03/02 00:38:24;;;;;;;;;;;;;;;0.92;100.00;96475.31;5016755;28;20382;-68
2023/03/02 00:40:49;;;;;;;;;;;;;;;0.93;100.00;96477.69;5026004;28;19918;-71
2023/03/02 00:43:15;;;;;;;;;;;;;;;0.98;100.00;96471.38;5018598;28;20283;-69
2023/03/02 00:45:40;;;;;;;;;;;;;;;0.98;100.00;96463.28;5004296;28;19918;-68
2023/03/02 00:48:05;;;;;;;;;;;;;;;0.96;100.00;96465.50;5008026;28;19971;-64
2023/03/02 00:50:31;;;;;;;;;;;;;;;0.93;100.00;96458.81;5026921;28;20428;-69
2023/03/02 00:52:56;;;;;;;;;;;;;;;0.92;100.00;96459.91;5007592;28;20271;-67
2023/03/02 00:55:21;;;;;;;;;;;;;;;0.97;100.00;96472.47;5013746;28;20333;-67
2023/03/02 00:57:53;;;;;;;;;;;;;;;0.93;100.00;96458.81;5010277;28;19918;-68
2023/03/02 01:00:23;;;;;;;;;;;;;;;0.92;100.00;96456.44;4999639;28;19917;-70
2023/03/02 01:02:49;;;;;;;;;;;;;;;0.88;100.00;96458.16;5005168;28;20008;-69
2023/03/02 01:05:14;;;;;;;;;;;;;;;0.89;100.00;96454.34;5000210;28;20079;-69
2023/03/02 01:07:40;;;;;;;;;;;;;;;0.91;100.00;96460.22;5011764;28;20328;-69
2023/03/02 01:10:05;;;;;;;;;;;;;;;0.89;100.00;96455.13;5020277;28;19921;-69
2023/03/02 01:12:31;;;;;;;;;;;;;;;0.91;100.00;96458.31;5025065;28;19932;-68
2023/03/02 01:14:56;;;;;;;;;;;;;;;0.91;100.00;96457.53;5024851;28;19922;-67
2023/03/02 01:17:24;;;;;;;;;;;;;;;0.92;100.00;96445.66;5025782;28;19933;-68
2023/03/02 01:19:49;;;;;;;;;;;;;;;0.91;100.00;96446.75;5028708;28;19924;-69
2023/03/02 01:22:14;;;;;;;;;;;;;;;0.91;100.00;96452.13;5022367;28;19925;-70
2023/03/02 01:24:40;;;;;;;;;;;;;;;0.92;100.00;96448.34;5023061;28;19925;-69
2023/03/02 01:27:05;;;;;;;;;;;;;;;0.92;100.00;96443.75;5019498;28;19921;-68
2023/03/02 01:29:30;;;;;;;;;;;;;;;0.92;100.00;96441.03;5024466;28;20349;-70
2023/03/02 01:31:56;;;;;;;;;;;;;;;0.92;100.00;96438.34;5008600;28;19969;-71
2023/03/02 01:34:21;;;;;;;;;;;;;;;0.90;100.00;96434.34;4997981;28;20471;-68
2023/03/02 01:36:46;;;;;;;;;;;;;;;0.92;100.00;96426.78;5002410;28;20639;-70
2023/03/02 01:39:15;;;;;;;;;;;;;;;0.91;100.00;96427.88;4999234;28;19999;-69
2023/03/02 01:41:42;;;;;;;;;;;;;;;0.91;100.00;96427.88;5004157;28;19982;-69
2023/03/02 01:44:27;;;;;;;;;;;;;;;0.90;100.00;96427.09;4999010;28;19981;-69
2023/03/02 01:46:52;;;;;;;;;;;;;;;0.91;100.00;96412.47;4999479;28;20021;-69
2023/03/02 01:49:17;;;;;;;;;;;;;;;0.92;100.00;96416.00;4998121;28;20004;-69
2023/03/02 01:51:45;;;;;;;;;;;;;;;0.89;100.00;96416.59;5014394;28;19975;-69
2023/03/02 01:54:16;;;;;;;;;;;;;;;0.87;100.00;96416.91;4998498;28;20032;-69
2023/03/02 01:56:43;;;;;;;;;;;;;;;0.88;100.00;96415.00;5003293;28;19917;-69
2023/03/02 01:59:10;;;;;;;;;;;;;;;0.87;100.00;96405.34;5000002;28;19940;-69
2023/03/02 02:01:38;;;;;;;;;;;;;;;0.89;100.00;96405.81;5007826;28;19918;-71
2023/03/02 02:04:05;;;;;;;;;;;;;;;0.92;100.00;96402.50;5010570;28;20015;-67
2023/03/02 02:06:33;;;;;;;;;;;;;;;0.88;100.00;96399.63;5002506;28;19921;-70
2023/03/02 02:09:00;;;;;;;;;;;;;;;0.90;100.00;96402.00;5023520;28;20020;-71
2023/03/02 02:11:25;;;;;;;;;;;;;;;0.88;100.00;96391.56;5018368;28;20007;-71
2023/03/02 02:13:56;;;;;;;;;;;;;;;0.89;100.00;96395.03;5023438;28;20004;-71
2023/03/02 02:16:22;;;;;;;;;;;;;;;0.88;100.00;96388.03;5006459;28;21010;-70
2023/03/02 02:18:47;;;;;;;;;;;;;;;0.90;100.00;96392.03;5003900;28;19965;-71
2023/03/02 02:21:13;;;;;;;;;;;;;;;0.89;100.00;96395.03;4998613;28;19967;-70
2023/03/02 02:23:44;;;;;;;;;;;;;;;0.87;100.00;96398.03;5001282;28;19921;-69
2023/03/02 02:26:17;;;;;;;;;;;;;;;0.86;100.00;96391.03;4998021;28;20398;-69
2023/03/02 02:28:48;;;;;;;;;;;;;;;0.86;100.00;96399.13;5003326;28;19918;-68
2023/03/02 02:31:16;;;;;;;;;;;;;;;0.87;100.00;96391.84;4997421;28;20397;-69
2023/03/02 02:33:44;;;;;;;;;;;;;;;0.91;100.00;96388.22;5001559;28;20401;-68
2023/03/02 02:36:21;;;;;;;;;;;;;;;0.92;100.00;96391.72;4997792;28;20015;-70
2023/03/02 02:38:49;;;;;;;;;;;;;;;0.94;100.00;96389.50;5001183;28;19955;-72
2023/03/02 02:41:23;;;;;;;;;;;;;;;0.95;100.00;96383.81;4998615;28;19918;-70
2023/03/02 02:43:49;;;;;;;;;;;;;;;0.91;100.00;96377.41;5005671;28;20059;-69
2023/03/02 02:46:14;;;;;;;;;;;;;;;0.91;100.00;96390.91;5006395;28;20008;-68
2023/03/02 02:48:39;;;;;;;;;;;;;;;0.97;100.00;96383.47;5022826;28;19943;-70
2023/03/02 02:51:06;;;;;;;;;;;;;;;0.96;100.00;96390.00;5018051;28;19925;-66
2023/03/02 02:53:39;;;;;;;;;;;;;;;0.98;100.00;96390.47;5016404;28;20270;-71
2023/03/02 02:56:05;;;;;;;;;;;;;;;0.99;100.00;96389.38;5003519;28;19917;-67
2023/03/02 02:58:37;;;;;;;;;;;;;;;0.98;100.00;96392.38;5023286;28;19928;-69
2023/03/02 03:01:03;;;;;;;;;;;;;;;1.01;100.00;96389.84;5016702;28;19917;-66
2023/03/02 03:03:30;;;;;;;;;;;;;;;0.97;100.00;96393.47;5004149;28;20016;-70
2023/03/02 03:06:01;;;;;;;;;;;;;;;1.05;100.00;96395.41;5002918;28;19928;-71
2023/03/02 03:08:45;;;;;;;;;;;;;;;1.00;100.00;96390.94;4998019;28;20366;-70
2023/03/02 03:11:11;;;;;;;;;;;;;;;0.98;100.00;96395.84;4998612;28;20332;-71
2023/03/02 03:13:37;;;;;;;;;;;;;;;0.98;100.00;96405.84;5002079;28;19921;-68
2023/03/02 03:16:05;;;;;;;;;;;;;;;0.96;100.00;96408.88;5002927;28;19968;-66
2023/03/02 03:18:30;;;;;;;;;;;;;;;0.93;100.00;96407.56;5023111;28;19917;-69
2023/03/02 03:21:02;;;;;;;;;;;;;;;0.93;100.00;96404.88;5027419;28;19924;-69
2023/03/02 03:23:27;;;;;;;;;;;;;;;1.02;100.00;96401.44;5032771;28;19925;-71
2023/03/02 03:25:52;;;;;;;;;;;;;;;1.00;100.00;96400.94;5030896;28;19924;-69
2023/03/02 03:28:17;;;;;;;;;;;;;;;0.93;100.00;96394.09;5018423;28;19952;-70
2023/03/02 03:30:43;;;;;;;;;;;;;;;1.09;100.00;96386.38;5033016;28;19917;-69
2023/03/02 03:33:09;;;;;;;;;;;;;;;0.90;100.00;96389.34;5033152;28;19952;-68
2023/03/02 03:35:38;;;;;;;;;;;;;;;0.98;100.00;96390.47;5029853;28;19925;-71
2023/03/02 03:38:04;;;;;;;;;;;;;;;0.98;100.00;96385.06;5023596;28;19952;-68
2023/03/02 03:40:33;;;;;;;;;;;;;;;0.92;100.00;96394.41;5033905;28;19927;-69
2023/03/02 03:42:59;;;;;;;;;;;;;;;0.91;100.00;96399.00;5033433;28;20473;-69
2023/03/02 03:45:24;;;;;;;;;;;;;;;0.86;100.00;96398.34;5023182;28;19948;-70
2023/03/02 03:47:49;;;;;;;;;;;;;;;0.84;100.00;96397.88;5014415;28;19949;-68
2023/03/02 03:50:14;;;;;;;;;;;;;;;0.82;100.00;96397.38;5008510;28;19921;-70
2023/03/02 03:52:40;;;;;;;;;;;;;;;0.80;100.00;96391.50;5015024;28;19918;-70
2023/03/02 03:55:05;;;;;;;;;;;;;;;0.80;100.00;96392.28;5004962;28;20351;-68
2023/03/02 03:57:31;;;;;;;;;;;;;;;0.89;100.00;96392.34;5019437;28;20015;-69
2023/03/02 03:59:56;;;;;;;;;;;;;;;0.85;100.00;96396.78;5021751;28;19918;-71
2023/03/02 04:02:21;;;;;;;;;;;;;;;0.81;100.00;96387.69;5020375;28;19929;-69
2023/03/02 04:04:46;;;;;;;;;;;;;;;0.80;100.00;96384.22;5017624;28;19922;-70
2023/03/02 04:07:12;;;;;;;;;;;;;;;0.75;100.00;96401.31;5018215;28;19917;-68
2023/03/02 04:09:38;;;;;;;;;;;;;;;0.81;100.00;96393.09;5021425;28;19917;-69
2023/03/02 04:12:04;;;;;;;;;;;;;;;0.79;100.00;96392.59;5018625;28;19917;-65
2023/03/02 04:14:29;;;;;;;;;;;;;;;0.76;100.00;96392.13;5020456;28;20370;-69
2023/03/02 04:16:55;;;;;;;;;;;;;;;0.81;100.00;96396.59;5023186;28;19921;-68
2023/03/02 04:19:21;;;;;;;;;;;;;;;0.82;100.00;96400.06;5019034;28;19918;-70
2023/03/02 04:21:47;;;;;;;;;;;;;;;0.99;100.00;96397.47;5018738;28;19963;-68
2023/03/02 04:24:16;;;;;;;;;;;;;;;0.80;100.00;96389.59;5019906;28;20451;-69
2023/03/02 04:26:42;;;;;;;;;;;;;;;0.74;100.00;96393.56;5030574;28;19924;-69
2023/03/02 04:29:08;;;;;;;;;;;;;;;0.78;100.00;96396.41;5031336;28;19921;-67
2023/03/02 04:31:33;;;;;;;;;;;;;;;0.79;100.00;96398.00;5023299;28;19918;-69
2023/03/02 04:33:58;;;;;;;;;;;;;;;0.83;100.00;96388.16;5009239;28;19924;-68
2023/03/02 04:36:24;;;;;;;;;;;;;;;0.77;100.00;96392.91;4999115;28;19917;-70
2023/03/02 04:38:50;;;;;;;;;;;;;;;0.77;100.00;96392.91;5004271;28;19964;-69
2023/03/02 04:41:16;;;;;;;;;;;;;;;0.83;100.00;96402.47;5011151;28;19936;-70
2023/03/02 04:43:41;;;;;;;;;;;;;;;0.87;100.00;96394.56;5006336;28;20001;-68
2023/03/02 04:46:08;;;;;;;;;;;;;;;0.98;100.00;96395.84;4999342;28;20326;-69
2023/03/02 04:48:33;;;;;;;;;;;;;;;0.85;100.00;96394.06;5004231;28;20266;-70
2023/03/02 04:50:58;;;;;;;;;;;;;;;0.91;100.00;96399.00;5004300;28;19921;-69
2023/03/02 04:53:24;;;;;;;;;;;;;;;0.80;100.00;96397.69;4999765;28;20901;-70
2023/03/02 04:55:49;;;;;;;;;;;;;;;0.80;100.00;96394.22;5004115;28;20291;-69
2023/03/02 04:58:14;;;;;;;;;;;;;;;0.78;100.00;96393.72;4998579;28;20311;-69
2023/03/02 05:00:40;;;;;;;;;;;;;;;0.75;100.00;96398.59;5003775;28;19921;-70
2023/03/02 05:03:06;;;;;;;;;;;;;;;0.87;100.00;96405.34;4953180;28;1862138;-69
2023/03/02 05:05:31;;;;;;;;;;;;;;;0.93;100.00;96404.88;5002520;28;19953;-70
2023/03/02 05:08:00;;;;;;;;;;;;;;;1.05;100.00;96403.50;5017046;28;19921;-69
2023/03/02 05:10:26;;;;;;;;;;;;;;;1.01;100.00;96414.13;5016536;28;20331;-71
2023/03/02 05:12:57;;;;;;;;;;;;;;;0.83;100.00;96426.72;5024830;28;19924;-70
2023/03/02 05:15:33;;;;;;;;;;;;;;;0.79;100.00;96406.09;5017810;28;20359;-70
2023/03/02 05:17:58;;;;;;;;;;;;;;;1.05;100.00;96411.59;5024855;28;20039;-69
2023/03/02 05:20:26;;;;;;;;;;;;;;;0.93;100.00;96406.78;5019827;28;20019;-69
2023/03/02 05:22:58;;;;;;;;;;;;;;;0.99;100.00;96410.94;5022056;28;20007;-69
2023/03/02 05:25:24;;;;;;;;;;;;;;;0.92;100.00;96411.38;5018244;28;20867;-71
2023/03/02 05:27:50;;;;;;;;;;;;;;;1.00;100.00;96422.53;5044737;28;19913;-70
2023/03/02 05:30:15;;;;;;;;;;;;;;;1.20;100.00;96419.25;5039494;28;19917;-73
2023/03/02 05:32:41;;;;;;;;;;;;;;;0.90;100.00;96419.00;5026692;28;19928;-71
2023/03/02 05:35:06;;;;;;;;;;;;;;;1.00;100.00;96417.91;5023245;28;19924;-70
2023/03/02 05:37:31;;;;;;;;;;;;;;;1.03;100.00;96414.59;5024569;28;20320;-70
2023/03/02 05:39:57;;;;;;;;;;;;;;;1.10;100.00;96422.25;5024083;28;20020;-73
2023/03/02 05:42:22;;;;;;;;;;;;;;;1.20;100.00;96430.03;5019509;28;19917;-71
2023/03/02 05:44:47;;;;;;;;;;;;;;;1.24;100.00;96431.03;5024542;28;19939;-72
2023/03/02 05:47:13;;;;;;;;;;;;;;;1.18;100.00;96431.47;5002432;28;19928;-69
2023/03/02 05:49:38;;;;;;;;;;;;;;;1.19;100.00;96433.88;5003019;28;19921;-69
2023/03/02 05:52:03;;;;;;;;;;;;;;;1.27;100.00;96432.28;4997860;28;19931;-68
2023/03/02 05:54:29;;;;;;;;;;;;;;;0.98;100.00;96441.69;4998161;28;19989;-70
2023/03/02 05:56:54;;;;;;;;;;;;;;;1.04;100.00;96436.97;5003301;28;19978;-69
2023/03/02 05:59:19;;;;;;;;;;;;;;;1.01;100.00;96440.28;4998725;28;19921;-68
2023/03/02 06:01:44;;;;;;;;;;;;;;;1.12;100.00;96444.31;5009789;28;20563;-67
2023/03/02 06:04:10;;;;;;;;;;;;;;;1.14;100.00;96447.47;4997455;28;19972;-67
2023/03/02 06:06:35;;;;;;;;;;;;;;;1.10;100.00;96460.00;5003304;28;19929;-68
2023/03/02 06:09:00;;;;;;;;;;;;;;;0.99;100.00;96455.97;5023043;28;19917;-68
2023/03/02 06:11:25;;;;;;;;;;;;;;;0.84;100.00;96457.97;5018814;28;19940;-68
2023/03/02 06:13:51;;;;;;;;;;;;;;;0.92;100.00;96465.31;5023770;28;19969;-69
2023/03/02 06:16:16;;;;;;;;;;;;;;;0.98;100.00;96468.66;5016286;28;20359;-68
2023/03/02 06:18:41;;;;;;;;;;;;;;;0.99;100.00;96469.47;5006975;28;19940;-69
2023/03/02 06:21:07;;;;;;;;;;;;;;;0.94;100.00;96467.72;4995582;28;19981;-68
2023/03/02 06:23:32;;;;;;;;;;;;;;;0.82;100.00;96475.56;4984806;28;20306;-67
2023/03/02 06:25:57;;;;;;;;;;;;;;;0.81;100.00;96466.69;5003372;28;19932;-70
2023/03/02 06:28:23;;;;;;;;;;;;;;;0.80;100.00;96472.38;4998573;28;20206;-70
2023/03/02 06:30:51;;;;;;;;;;;;;;;0.76;100.00;96474.91;5002481;28;20379;-69
2023/03/02 06:33:17;;;;;;;;;;;;;;;0.92;100.00;96476.09;4997855;28;19922;-70
2023/03/02 06:35:43;;;;;;;;;;;;;;;1.27;100.00;96478.16;5002260;28;19918;-69
2023/03/02 06:38:08;;;;;;;;;;;;;;;1.17;100.00;96484.63;4999228;28;19917;-70
2023/03/02 06:40:33;;;;;;;;;;;;;;;1.13;100.00;96481.75;5003136;28;19922;-70
2023/03/02 06:42:59;;;;;;;;;;;;;;;0.85;100.00;96483.84;5005262;28;19967;-69
2023/03/02 06:45:25;;;;;;;;;;;;;;;0.88;100.00;96488.63;4999903;28;20197;-69
2023/03/02 06:47:51;;;;;;;;;;;;;;;1.05;100.00;96482.50;5004265;28;19918;-69
2023/03/02 06:50:16;;;;;;;;;;;;;;;1.41;100.00;96481.53;5005922;28;19925;-69
2023/03/02 06:52:41;;;;;;;;;;;;;;;1.56;100.00;96483.00;5012263;28;19921;-69
2023/03/02 06:55:07;;;;;;;;;;;;;;;1.50;100.00;96485.06;5000673;28;19972;-71
2023/03/02 06:57:32;;;;;;;;;;;;;;;1.16;100.00;96483.03;5003072;28;19922;-70
2023/03/02 06:59:59;;;;;;;;;;;;;;;1.52;100.00;96487.47;5004031;28;19977;-70
2023/03/02 07:02:24;;;;;;;;;;;;;;;1.41;100.00;96486.94;4998821;28;20413;-69
2023/03/02 07:04:49;;;;;;;;;;;;;;;1.58;100.00;96502.38;5003352;28;19927;-69
2023/03/02 07:07:15;;;;;;;;;;;;;;;1.77;100.00;96499.44;4998178;28;19922;-69
2023/03/02 07:09:40;;;;;;;;;;;;;;;1.33;100.00;96493.09;5007644;28;20063;-69
2023/03/02 07:12:05;;;;;;;;;;;;;;;1.28;100.00;96502.13;5002040;28;19929;-69
2023/03/02 07:14:31;;;;;;;;;;;;;;;1.45;100.00;96501.41;5006784;28;20294;-69
2023/03/02 07:16:56;;;;;;;;;;;;;;;1.69;100.00;96500.19;5002893;28;20243;-70
2023/03/02 07:19:22;;;;;;;;;;;;;;;1.87;100.00;96504.56;5000016;28;20749;-69
2023/03/02 07:21:47;;;;;;;;;;;;;;;2.00;100.00;96507.41;5002222;28;19929;-70
2023/03/02 07:24:12;;;;;;;;;;;;;;;1.83;100.00;96506.25;5000096;28;19948;-69
2023/03/02 07:26:37;;;;;;;;;;;;;;;1.60;100.00;96513.66;5002477;28;20004;-70
2023/03/02 07:29:03;;;;;;;;;;;;;;;1.23;100.00;96507.66;5000138;28;20367;-69
2023/03/02 07:31:28;;;;;;;;;;;;;;;1.54;100.00;96514.94;5007368;28;19929;-70
2023/03/02 07:33:53;;;;;;;;;;;;;;;1.44;100.00;96523.28;5021543;28;19921;-69
2023/03/02 07:36:19;;;;;;;;;;;;;;;1.72;100.00;96523.88;5014663;28;19925;-69
2023/03/02 07:38:44;;;;;;;;;;;;;;;1.76;100.00;96524.84;5006012;28;19964;-69
2023/03/02 07:41:09;;;;;;;;;;;;;;;1.98;100.00;96532.06;4998766;28;20015;-69
2023/03/02 07:43:35;;;;;;;;;;;;;;;2.00;100.00;96532.53;5001528;28;20209;-69
2023/03/02 07:46:02;;;;;;;;;;;;;;;1.94;100.00;96533.00;5003977;28;20001;-69
2023/03/02 07:48:27;;;;;;;;;;;;;;;1.62;100.00;96540.34;5000211;28;19927;-69
2023/03/02 07:50:56;;;;;;;;;;;;;;;1.31;100.00;96542.00;5006047;28;20282;-69
2023/03/02 07:53:21;;;;;;;;;;;;;;;1.06;100.00;96548.84;5003651;28;19925;-69
2023/03/02 07:55:46;;;;;;;;;;;;;;;1.40;100.00;96549.31;5004395;28;19917;-70
2023/03/02 07:58:12;;;;;;;;;;;;;;;1.58;100.00;96545.59;4998796;28;20283;-71
2023/03/02 08:00:38;;;;;;;;;;;;;;;1.69;100.00;96552.31;5002415;28;19983;-71
2023/03/02 08:03:03;;;;;;;;;;;;;;;1.95;100.00;96548.09;5000459;28;19922;-69
2023/03/02 08:05:29;;;;;;;;;;;;;;;1.86;100.00;96548.84;5000384;28;19928;-69
2023/03/02 08:07:54;;;;;;;;;;;;;;;1.98;100.00;96550.97;5014491;28;20418;-69
2023/03/02 08:10:20;;;;;;;;;;;;;;;2.24;100.00;96561.03;5015449;28;20000;-70
2023/03/02 08:12:45;;;;;;;;;;;;;;;2.49;100.00;96564.88;5004779;28;19928;-71
2023/03/02 08:15:10;;;;;;;;;;;;;;;2.63;100.00;96568.22;5001597;28;20651;-69
2023/03/02 08:17:36;;;;;;;;;;;;;;;2.29;100.00;96568.97;5024275;28;19968;-69
2023/03/02 08:20:02;;;;;;;;;;;;;;;2.45;100.00;96582.84;5024094;28;19921;-69
2023/03/02 08:22:27;;;;;;;;;;;;;;;2.61;100.00;96578.56;5021279;28;19929;-69
2023/03/02 08:24:52;;;;;;;;;;;;;;;2.38;100.00;96582.50;5022815;28;19996;-69
2023/03/02 08:27:17;;;;;;;;;;;;;;;2.44;100.00;96583.94;5018919;28;19961;-71
2023/03/02 08:29:43;;;;;;;;;;;;;;;2.21;100.00;96578.66;5023183;28;20661;-70
2023/03/02 08:32:08;;;;;;;;;;;;;;;2.37;100.00;96578.19;5018535;28;19921;-69
2023/03/02 08:34:34;;;;;;;;;;;;;;;2.65;100.00;96582.19;5022653;28;19921;-69
2023/03/02 08:36:59;;;;;;;;;;;;;;;2.64;100.00;96583.31;5021871;28;20012;-70
2023/03/02 08:39:24;;;;;;;;;;;;;;;2.63;100.00;96583.66;5016802;28;19924;-70
2023/03/02 08:41:50;;;;;;;;;;;;;;;2.83;100.00;96582.22;5020989;28;20000;-68
2023/03/02 08:44:16;;;;;;;;;;;;;;;2.92;100.00;96582.19;5017420;28;20414;-71
2023/03/02 08:46:42;;;;;;;;;;;;;;;2.96;100.00;96581.22;5021971;28;19917;-70
2023/03/02 08:49:07;;;;;;;;;;;;;;;2.98;100.00;96579.00;5018777;28;19924;-69
2023/03/02 08:51:32;;;;;;;;;;;;;;;3.03;100.00;96569.94;5022363;28;19975;-69
2023/03/02 08:53:58;;;;;;;;;;;;;;;2.97;100.00;96569.31;5022666;28;20294;-69
2023/03/02 08:56:28;;;;;;;;;;;;;;;3.06;99.97;96580.91;5018628;28;19928;-71
2023/03/02 08:58:54;;;;;;;;;;;;;;;3.04;99.47;96583.16;5028493;28;19921;-69
2023/03/02 09:01:30;;;;;;;;;;;;;;;3.03;99.33;96581.53;5019265;28;19932;-70
2023/03/02 09:03:56;;;;;;;;;;;;;;;2.98;100.00;96583.63;4988509;28;19932;-71
2023/03/02 09:06:21;;;;;;;;;;;;;;;2.97;99.75;96584.72;5001141;28;19964;-71
2023/03/02 09:08:47;;;;;;;;;;;;;;;3.10;99.02;96585.66;5008511;28;19917;-70
2023/03/02 09:11:13;;;;;;;;;;;;;;;3.05;98.71;96589.34;5021162;28;19917;-70
2023/03/02 09:13:38;;;;;;;;;;;;;;;2.70;99.83;96589.34;5026485;28;19921;-70
2023/03/02 09:16:04;;;;;;;;;;;;;;;2.87;100.00;96592.06;5028355;28;19921;-69
2023/03/02 09:18:29;;;;;;;;;;;;;;;3.00;100.00;96586.81;5042209;28;19916;-70
2023/03/02 09:20:55;;;;;;;;;;;;;;;3.17;99.34;96591.38;5023479;28;19917;-70
2023/03/02 09:23:21;;;;;;;;;;;;;;;3.32;97.18;96592.81;5020186;28;19928;-70
2023/03/02 09:25:47;;;;;;;;;;;;;;;3.34;96.71;96593.28;5025261;28;19917;-71
2023/03/02 09:28:13;;;;;;;;;;;;;;;3.43;96.53;96600.25;5019873;28;19921;-69
2023/03/02 09:30:38;;;;;;;;;;;;;;;3.31;96.12;96594.69;5026134;28;19917;-71
2023/03/02 09:33:03;;;;;;;;;;;;;;;3.25;96.50;96596.00;5021089;28;19924;-68
2023/03/02 09:35:29;;;;;;;;;;;;;;;3.08;96.95;96598.72;5025196;28;20513;-70
2023/03/02 09:37:54;;;;;;;;;;;;;;;3.10;97.10;96597.31;5034145;28;19924;-70
2023/03/02 09:40:21;;;;;;;;;;;;;;;3.27;96.60;96604.59;5031473;28;19921;-71
2023/03/02 09:43:04;;;;;;;;;;;;;;;3.06;96.31;96607.16;5031349;28;19929;-70
2023/03/02 09:45:32;;;;;;;;;;;;;;;3.17;97.10;96600.31;5024791;28;19921;-70
2023/03/02 09:48:11;;;;;;;;;;;;;;;3.26;97.00;96613.84;5024349;28;20303;-70
2023/03/02 09:50:39;;;;;;;;;;;;;;;3.36;96.11;96612.69;5014626;28;19953;-68
2023/03/02 09:53:10;;;;;;;;;;;;;;;3.42;96.17;96608.69;4996735;28;20398;-68
2023/03/02 09:55:36;;;;;;;;;;;;;;;3.60;95.08;96612.97;5004253;28;19926;-69
2023/03/02 09:58:13;;;;;;;;;;;;;;;3.47;94.44;96605.81;5000559;28;19928;-68
2023/03/02 10:00:42;;;;;;;;;;;;;;;3.47;94.92;96613.94;5005307;28;19917;-69
2023/03/02 10:03:16;;;;;;;;;;;;;;;3.56;95.10;96614.72;5011021;28;19932;-69
2023/03/02 10:05:43;;;;;;;;;;;;;;;3.50;94.54;96624.13;5017053;28;19921;-68
2023/03/02 10:08:13;;;;;;;;;;;;;;;3.63;94.43;96616.94;5001132;28;20290;-69
2023/03/02 10:10:38;;;;;;;;;;;;;;;3.76;93.89;96617.84;5017127;28;19980;-69
2023/03/02 10:13:09;;;;;;;;;;;;;;;3.82;93.80;96619.25;4997215;28;19956;-68
2023/03/02 10:15:53;;;;;;;;;;;;;;;3.85;92.51;96621.31;5002114;28;19918;-68
2023/03/02 10:18:23;;;;;;;;;;;;;;;3.80;92.85;96618.81;4995052;28;20313;-68
2023/03/02 10:20:54;;;;;;;;;;;;;;;3.66;94.09;96621.72;4999460;28;19979;-68
2023/03/02 10:23:28;;;;;;;;;;;;;;;3.74;94.20;96620.09;4994307;28;20451;-68
2023/03/02 10:26:04;;;;;;;;;;;;;;;3.76;93.45;96620.53;4999671;28;19921;-69
2023/03/02 10:28:33;;;;;;;;;;;;;;;3.81;92.56;96625.78;4984651;28;19921;-68
2023/03/02 10:31:09;;;;;;;;;;;;;;;3.95;91.85;96623.66;5000587;28;19940;-68
2023/03/02 10:33:36;;;;;;;;;;;;;;;3.93;90.58;96630.53;5002485;28;19917;-69
2023/03/02 10:36:04;;;;;;;;;;;;;;;3.75;91.22;96627.09;5002396;28;20430;-69
2023/03/02 10:38:31;;;;;;;;;;;;;;;3.98;91.38;96627.63;4999819;28;19917;-69
2023/03/02 10:40:58;;;;;;;;;;;;;;;4.11;89.89;96625.84;4996754;28;19977;-69
2023/03/02 10:43:29;;;;;;;;;;;;;;;4.09;89.92;96636.19;4998175;28;20730;-69
2023/03/02 10:46:08;;;;;;;;;;;;;;;4.09;89.93;96634.28;5001735;28;19941;-69
2023/03/02 10:49:09;;;;;;;;;;;;;;;3.99;89.40;96640.06;5000133;28;19922;-69
2023/03/02 10:51:34;;;;;;;;;;;;;;;3.99;89.94;96645.50;4919889;29;19930;-69
2023/03/02 10:54:05;;;;;;;;;;;;;;;3.47;91.48;96643.72;4983812;28;19917;-69
2023/03/02 10:56:31;;;;;;;;;;;;;;;3.55;91.34;96647.56;5000638;28;19971;-69
2023/03/02 10:59:02;;;;;;;;;;;;;;;3.55;92.61;96634.81;4999977;28;19921;-69
2023/03/02 11:01:28;;;;;;;;;;;;;;;3.86;91.56;96638.38;4995392;28;19961;-68
2023/03/02 11:03:58;;;;;;;;;;;;;;;3.76;90.80;96631.38;5004086;28;19929;-69
2023/03/02 11:06:23;;;;;;;;;;;;;;;3.95;90.45;96639.94;4997667;28;19923;-68
2023/03/02 11:09:02;;;;;;;;;;;;;;;4.17;88.87;96636.16;5013862;28;19918;-68
2023/03/02 11:11:28;;;;;;;;;;;;;;;4.12;87.83;96641.75;4999745;28;19917;-68
2023/03/02 11:13:55;;;;;;;;;;;;;;;4.18;87.20;96648.59;5000885;28;19964;-68
2023/03/02 11:16:25;;;;;;;;;;;;;;;4.12;87.37;96635.56;4995559;28;19925;-69
2023/03/02 11:18:51;;;;;;;;;;;;;;;4.09;87.46;96638.91;5000756;28;20432;-69
2023/03/02 11:21:19;;;;;;;;;;;;;;;4.02;87.80;96637.50;4995119;28;19921;-68
2023/03/02 11:24:06;;;;;;;;;;;;;;;4.05;87.81;96637.97;4999896;28;20012;-68
2023/03/02 11:26:45;;;;;;;;;;;;;;;3.77;88.97;96638.41;4998635;28;19924;-69
2023/03/02 11:29:19;;;;;;;;;;;;;;;3.98;88.19;96647.41;4993586;28;20394;-68
2023/03/02 11:31:50;;;;;;;;;;;;;;;4.08;88.41;96648.97;5001852;28;19918;-68
2023/03/02 11:34:18;;;;;;;;;;;;;;;4.11;87.15;96650.25;4997734;28;19984;-69
2023/03/02 11:36:46;;;;;;;;;;;;;;;4.20;86.04;96651.00;4999191;28;19977;-68
2023/03/02 11:39:15;;;;;;;;;;;;;;;3.82;87.10;96655.28;4975958;28;20361;-68
2023/03/02 11:41:40;;;;;;;;;;;;;;;3.84;88.22;96646.81;5005505;28;19929;-69
2023/03/02 11:44:17;;;;;;;;;;;;;;;3.94;86.31;96642.97;5015080;28;19925;-69
2023/03/02 11:46:50;;;;;;;;;;;;;;;3.92;87.54;96642.50;5021790;28;19905;-69
2023/03/02 11:49:24;;;;;;;;;;;;;;;3.73;90.49;96640.97;4996473;28;19928;-67
2023/03/02 11:51:54;;;;;;;;;;;;;;;4.20;88.95;96642.84;5000989;28;19922;-68
2023/03/02 11:54:22;;;;;;;;;;;;;;;4.38;87.41;96647.06;4998471;28;19918;-69
2023/03/02 11:56:47;;;;;;;;;;;;;;;4.00;88.28;96639.75;5001869;28;19921;-69
2023/03/02 11:59:16;;;;;;;;;;;;;;;4.05;88.71;96648.81;4998672;28;20296;-68
2023/03/02 12:01:43;;;;;;;;;;;;;;;4.07;87.67;96647.38;5004478;28;19918;-68
2023/03/02 12:04:24;;;;;;;;;;;;;;;4.18;86.54;96651.31;4997806;28;19983;-68
2023/03/02 12:06:49;;;;;;;;;;;;;;;4.43;85.63;96646.09;5006127;28;19971;-69
2023/03/02 12:09:20;;;;;;;;;;;;;;;4.44;84.91;96644.97;5017711;28;19922;-69
2023/03/02 12:11:52;;;;;;;;;;;;;;;4.42;85.06;96647.19;5021581;28;19921;-69
2023/03/02 12:14:26;;;;;;;;;;;;;;;4.43;84.94;96650.69;5019746;28;20377;-69
2023/03/02 12:17:01;;;;;;;;;;;;;;;4.32;84.67;96647.56;5002126;28;19979;-68
2023/03/02 12:19:37;;;;;;;;;;;;;;;4.43;85.55;96643.38;4997379;28;19917;-67
2023/03/02 12:22:07;;;;;;;;;;;;;;;4.45;84.32;96646.56;4999983;28;19940;-69
2023/03/02 12:24:37;;;;;;;;;;;;;;;4.41;84.39;96642.88;5004342;28;19918;-69
2023/03/02 12:27:11;;;;;;;;;;;;;;;4.34;84.49;96642.59;5002110;28;19967;-69
2023/03/02 12:29:41;;;;;;;;;;;;;;;4.39;84.72;96642.44;5002842;28;19956;-69
2023/03/02 12:32:27;;;;;;;;;;;;;;;4.44;84.52;96646.88;4999311;28;19928;-70
2023/03/02 12:34:58;;;;;;;;;;;;;;;4.38;85.15;96643.56;5007886;28;20287;-68
2023/03/02 12:37:25;;;;;;;;;;;;;;;4.33;84.94;96635.63;5004525;28;20338;-68
2023/03/02 12:40:03;;;;;;;;;;;;;;;4.20;84.86;96648.28;5005987;28;19929;-68
2023/03/02 12:42:40;;;;;;;;;;;;;;;4.19;85.58;96647.47;5009433;28;19922;-69
2023/03/02 12:45:24;;;;;;;;;;;;;;;4.26;85.64;96646.97;5007344;28;19944;-69
2023/03/02 12:47:55;;;;;;;;;;;;;;;4.31;85.39;96643.28;5008570;28;19995;-68
2023/03/02 12:50:24;;;;;;;;;;;;;;;4.35;85.41;96646.94;5002583;28;19922;-69
2023/03/02 12:53:03;;;;;;;;;;;;;;;4.27;84.51;96640.44;4989851;28;19940;-69